Time;durP1;ratioP1;P1;durP2;ratioP2;P2;SDS_P1;SDS_P2;PMS_P1;PMS_P2;Temp;Humidity;BMP_temperature;BMP_pressure;BME280_temperature;BME280_humidity;BME280_pressure;Samples;Min_cycle;Max_cycle;Signal;HPM_P1;HPM_P2
2022/07/10 00:00:44;;;;;;;1.15;0.70;;;;;;;21.85;43.71;99863.19;4440935;32;33952;-77
2022/07/10 00:03:12;;;;;;;2.08;0.70;;;;;;;21.82;43.99;99865.72;4428466;32;33348;-77
2022/07/10 00:05:40;;;;;;;1.80;0.80;;;;;;;22.00;43.67;99851.19;4428723;32;33874;-77
2022/07/10 00:08:07;;;;;;;2.80;0.85;;;;;;;21.87;44.21;99857.34;4428413;32;34983;-77
2022/07/10 00:10:38;;;;;;;0.90;0.70;;;;;;;21.70;44.77;99858.44;4415463;32;32713;-77
2022/07/10 00:13:05;;;;;;;1.60;0.82;;;;;;;21.81;44.66;99852.84;4428397;32;34035;-77
2022/07/10 00:15:36;;;;;;;1.87;0.80;;;;;;;21.69;45.08;99855.91;4428201;32;33373;-77
2022/07/10 00:18:09;;;;;;;3.75;1.20;;;;;;;21.75;45.20;99853.97;4428167;32;34370;-77
2022/07/10 00:20:37;;;;;;;2.87;1.00;;;;;;;21.96;44.74;99852.88;4441077;32;33917;-77
2022/07/10 00:23:08;;;;;;;3.47;0.88;;;;;;;21.48;46.16;99855.06;4428457;32;31791;-77
2022/07/10 00:25:35;;;;;;;1.80;0.80;;;;;;;21.98;44.95;99856.22;4428321;32;33744;-77
2022/07/10 00:28:04;;;;;;;1.85;0.80;;;;;;;22.03;44.87;99847.87;4428472;32;34452;-77
2022/07/10 00:30:32;;;;;;;1.35;0.75;;;;;;;21.43;46.59;99876.56;4428365;32;34553;-77
2022/07/10 00:33:02;;;;;;;1.95;0.75;;;;;;;20.95;48.15;99867.44;4428572;32;33580;-77
2022/07/10 00:35:33;;;;;;;1.55;0.90;;;;;;;21.32;47.26;99859.78;4441026;32;33760;-77
2022/07/10 00:38:01;;;;;;;5.18;0.98;;;;;;;21.52;46.76;99858.13;4440919;32;35247;-77
2022/07/10 00:40:32;;;;;;;1.65;0.75;;;;;;;21.62;46.51;99858.97;4428424;32;34476;-77
2022/07/10 00:42:59;;;;;;;1.98;0.90;;;;;;;21.24;47.88;99862.28;4441087;32;33518;-77
2022/07/10 00:45:28;;;;;;;1.90;1.00;;;;;;;21.18;48.15;99857.75;4454962;32;34480;-77
2022/07/10 00:47:56;;;;;;;2.70;1.00;;;;;;;21.27;47.90;99858.94;4428215;32;34458;-77
2022/07/10 00:50:26;;;;;;;1.70;0.80;;;;;;;21.31;47.83;99863.69;4427930;32;33944;-77
2022/07/10 00:52:55;;;;;;;4.20;1.05;;;;;;;21.09;48.66;99857.44;4428375;32;34064;-77
2022/07/10 00:55:23;;;;;;;1.77;0.90;;;;;;;21.28;48.21;99861.47;4428145;32;33907;-77
2022/07/10 00:57:51;;;;;;;1.48;0.90;;;;;;;21.45;47.88;99860.38;4417360;32;34358;-76
2022/07/10 01:00:22;;;;;;;2.83;1.00;;;;;;;21.17;48.68;99854.13;4412724;32;33901;-77
2022/07/10 01:02:49;;;;;;;1.67;0.90;;;;;;;21.03;49.22;99861.34;4412864;32;33224;-77
2022/07/10 01:05:17;;;;;;;1.67;0.93;;;;;;;21.11;49.10;99854.38;4412378;32;33406;-78
2022/07/10 01:07:45;;;;;;;2.17;1.10;;;;;;;21.02;49.61;99848.50;4412686;32;34254;-81
2022/07/10 01:10:13;;;;;;;2.58;0.85;;;;;;;20.99;49.87;99844.28;4412702;32;32650;-81
2022/07/10 01:12:43;;;;;;;3.00;1.20;;;;;;;21.00;49.85;99847.94;4412561;32;33210;-80
2022/07/10 01:15:11;;;;;;;2.42;1.12;;;;;;;20.75;50.73;99859.00;4425406;32;33759;-77
2022/07/10 01:17:39;;;;;;;2.05;1.05;;;;;;;20.79;50.61;99855.41;4412595;32;32845;-83
2022/07/10 01:20:09;;;;;;;2.95;1.10;;;;;;;20.73;50.91;99852.84;4412076;32;33851;-83
2022/07/10 01:22:37;;;;;;;1.77;1.00;;;;;;;20.95;50.02;99862.69;4439004;32;33246;-77
2022/07/10 01:25:08;;;;;;;1.50;0.90;;;;;;;20.86;50.21;99858.75;4399736;32;32158;-77
2022/07/10 01:27:35;;;;;;;2.55;1.00;;;;;;;20.32;51.72;99853.44;4425093;32;35283;-77
2022/07/10 01:30:04;;;;;;;1.85;0.95;;;;;;;20.40;51.81;99863.25;4411469;32;32375;-77
2022/07/10 01:32:41;;;;;;;1.77;1.00;;;;;;;20.76;50.59;99860.69;4412235;32;31995;-77
2022/07/10 01:35:09;;;;;;;1.90;1.10;;;;;;;20.85;50.22;99859.03;4412735;32;33689;-77
2022/07/10 01:37:38;;;;;;;2.05;1.02;;;;;;;20.44;51.49;99855.19;4399939;32;33860;-76
2022/07/10 01:40:09;;;;;;;1.92;1.12;;;;;;;20.53;51.18;99859.16;4412266;32;33547;-77
2022/07/10 01:42:37;;;;;;;2.17;1.20;;;;;;;20.40;51.40;99843.75;4412661;32;33145;-77
2022/07/10 01:45:09;;;;;;;1.70;1.02;;;;;;;20.03;52.36;99852.97;4412330;32;33703;-76
2022/07/10 01:47:37;;;;;;;2.25;1.10;;;;;;;20.06;52.37;99844.06;4412301;32;33545;-77
2022/07/10 01:50:06;;;;;;;1.75;0.90;;;;;;;19.73;53.39;99841.56;4425207;32;33691;-77
2022/07/10 01:52:33;;;;;;;2.62;1.10;;;;;;;19.36;54.54;99827.56;4412477;32;33831;-77
2022/07/10 01:55:02;;;;;;;2.60;1.30;;;;;;;19.70;53.56;99837.38;4412402;32;34161;-76
2022/07/10 01:57:32;;;;;;;2.85;1.10;;;;;;;19.92;52.72;99830.88;4412326;32;34439;-77
2022/07/10 01:59:59;;;;;;;2.58;1.27;;;;;;;20.15;52.07;99826.84;4425160;32;34177;-76
2022/07/10 02:02:27;;;;;;;1.73;1.00;;;;;;;19.95;52.64;99825.59;4412386;32;33270;-77
2022/07/10 02:04:55;;;;;;;4.10;1.10;;;;;;;20.09;52.10;99822.34;4412519;32;34301;-76
2022/07/10 02:07:25;;;;;;;2.25;1.20;;;;;;;20.07;52.16;99825.41;4412007;32;33989;-77
2022/07/10 02:09:55;;;;;;;2.42;1.08;;;;;;;20.05;52.18;99822.91;4412208;32;32632;-77
2022/07/10 02:12:26;;;;;;;3.28;1.30;;;;;;;19.93;52.64;99821.41;4412206;32;33488;-77
2022/07/10 02:14:56;;;;;;;3.40;1.30;;;;;;;19.95;52.39;99825.59;4411968;32;32434;-77
2022/07/10 02:17:25;;;;;;;3.37;1.25;;;;;;;20.10;52.16;99824.03;4412386;32;35481;-77
2022/07/10 02:19:52;;;;;;;3.20;1.25;;;;;;;19.67;53.49;99825.91;4412253;32;34339;-77
2022/07/10 02:22:22;;;;;;;1.92;1.23;;;;;;;20.04;52.47;99824.00;4412520;32;32785;-77
2022/07/10 02:24:51;;;;;;;3.10;1.33;;;;;;;20.32;51.57;99821.94;4418559;32;32583;-77
2022/07/10 02:27:18;;;;;;;2.50;1.27;;;;;;;20.29;51.57;99819.69;4413984;32;35384;-75
2022/07/10 02:29:46;;;;;;;1.95;1.20;;;;;;;19.98;52.79;99816.72;4412454;32;34924;-76
2022/07/10 02:32:14;;;;;;;1.98;1.12;;;;;;;20.39;51.39;99819.78;4412523;32;31800;-75
2022/07/10 02:34:44;;;;;;;2.65;1.40;;;;;;;20.30;51.73;99821.34;4412055;32;33168;-77
2022/07/10 02:37:11;;;;;;;2.70;1.33;;;;;;;20.39;51.46;99816.97;4412071;32;35043;-76
2022/07/10 02:39:40;;;;;;;3.25;1.20;;;;;;;20.34;51.48;99812.19;4399272;32;33777;-77
2022/07/10 02:42:08;;;;;;;2.33;1.20;;;;;;;20.40;51.42;99807.50;4399867;32;32541;-77
2022/07/10 02:44:38;;;;;;;2.67;1.40;;;;;;;19.76;53.47;99813.19;4413781;32;33637;-77
2022/07/10 02:47:08;;;;;;;2.80;1.50;;;;;;;20.10;52.44;99804.53;4413562;32;32947;-77
2022/07/10 02:49:36;;;;;;;2.95;1.42;;;;;;;19.67;53.92;99812.00;4426211;32;34004;-76
2022/07/10 02:52:06;;;;;;;3.03;1.30;;;;;;;19.33;55.06;99811.41;4413510;32;31943;-77
2022/07/10 02:54:34;;;;;;;2.28;1.20;;;;;;;19.89;53.26;99812.75;4426610;32;33442;-76
2022/07/10 02:57:04;;;;;;;3.92;1.37;;;;;;;19.85;53.41;99810.75;4401033;32;32966;-77
2022/07/10 02:59:32;;;;;;;2.45;1.40;;;;;;;19.60;54.33;99819.72;4413422;32;33483;-76
2022/07/10 03:02:00;;;;;;;3.10;1.60;;;;;;;19.71;53.82;99811.19;4413956;32;33562;-76
2022/07/10 03:04:28;;;;;;;2.12;1.23;;;;;;;19.37;54.95;99813.41;4413358;32;33581;-76
2022/07/10 03:06:56;;;;;;;3.33;1.50;;;;;;;19.41;54.76;99813.72;4400879;32;33929;-77
2022/07/10 03:09:25;;;;;;;3.50;1.60;;;;;;;19.05;56.13;99801.38;4426297;32;33941;-77
2022/07/10 03:11:52;;;;;;;3.85;1.58;;;;;;;18.78;57.17;99817.19;4401185;32;32579;-77
2022/07/10 03:14:23;;;;;;;2.85;1.58;;;;;;;19.13;56.02;99809.25;4401577;32;32134;-76
2022/07/10 03:16:53;;;;;;;5.28;2.00;;;;;;;18.88;57.02;99798.66;4413735;32;34334;-77
2022/07/10 03:19:21;;;;;;;3.00;1.50;;;;;;;19.02;56.56;99796.31;4400734;32;32373;-78
2022/07/10 03:21:48;;;;;;;3.78;1.80;;;;;;;19.17;56.03;99799.28;4413402;32;34210;-77
2022/07/10 03:24:16;;;;;;;4.03;1.85;;;;;;;19.11;56.23;99791.12;4413509;32;33993;-77
2022/07/10 03:26:45;;;;;;;3.85;1.55;;;;;;;18.51;58.55;99801.25;4400916;32;32874;-76
2022/07/10 03:29:13;;;;;;;2.90;1.60;;;;;;;18.95;56.86;99790.13;4413345;32;32602;-76
2022/07/10 03:31:46;;;;;;;3.08;1.60;;;;;;;19.25;56.02;99796.00;4414703;32;33149;-77
2022/07/10 03:34:13;;;;;;;3.15;1.58;;;;;;;18.71;57.75;99789.59;4413310;32;33186;-76
2022/07/10 03:36:41;;;;;;;3.50;1.83;;;;;;;18.69;57.92;99787.06;4413393;32;34609;-77
2022/07/10 03:39:09;;;;;;;4.37;1.75;;;;;;;18.70;57.92;99793.47;4413301;32;33224;-76
2022/07/10 03:41:37;;;;;;;3.87;1.73;;;;;;;18.52;58.65;99788.22;4425859;32;31745;-77
2022/07/10 03:44:05;;;;;;;3.70;1.60;;;;;;;18.84;57.76;99782.81;4400830;32;32307;-76
2022/07/10 03:46:33;;;;;;;3.75;1.70;;;;;;;19.14;56.65;99785.88;4413341;32;34477;-76
2022/07/10 03:49:01;;;;;;;3.47;1.73;;;;;;;19.03;57.15;99782.16;4412950;32;33275;-76
2022/07/10 03:51:28;;;;;;;3.45;1.77;;;;;;;19.14;56.70;99782.25;4413306;32;32784;-76
2022/07/10 03:53:56;;;;;;;4.15;1.83;;;;;;;18.57;58.76;99786.34;4399787;32;32271;-76
2022/07/10 03:59:13;;;;;;;3.70;1.83;;;;;;;18.67;58.60;99797.63;4427963;32;33761;-76
2022/07/10 04:01:41;;;;;;;4.00;2.00;;;;;;;18.64;58.67;99783.38;4413290;32;33271;-76
2022/07/10 04:04:09;;;;;;;3.95;2.08;;;;;;;18.84;58.08;99782.81;4398083;32;115263;-77
2022/07/10 04:06:40;;;;;;;3.75;1.70;;;;;;;18.93;57.88;99776.47;4411685;32;32882;-76
2022/07/10 04:09:07;;;;;;;3.83;1.80;;;;;;;18.79;58.51;99771.63;4413664;32;33389;-76
2022/07/10 04:11:35;;;;;;;4.85;2.00;;;;;;;18.92;58.20;99768.41;4412901;32;31800;-77
2022/07/10 04:14:03;;;;;;;4.07;2.10;;;;;;;18.79;58.66;99771.63;4413168;32;33638;-77
2022/07/10 04:16:31;;;;;;;4.10;2.00;;;;;;;19.08;57.70;99770.25;4413211;32;34474;-76
2022/07/10 04:18:59;;;;;;;3.15;1.83;;;;;;;18.71;58.91;99779.31;4412828;32;32325;-77
2022/07/10 04:21:26;;;;;;;3.25;1.75;;;;;;;19.08;57.95;99770.25;4413030;32;33775;-76
2022/07/10 04:23:56;;;;;;;4.10;2.08;;;;;;;18.67;59.07;99763.41;4413021;32;33043;-77
2022/07/10 04:26:24;;;;;;;4.18;2.25;;;;;;;18.74;58.86;99767.69;4413267;32;34111;-77
2022/07/10 04:28:52;;;;;;;5.00;1.95;;;;;;;18.52;59.80;99763.19;4412838;32;32510;-76
2022/07/10 04:31:19;;;;;;;4.03;2.10;;;;;;;18.71;59.40;99767.34;4413248;32;34113;-80
2022/07/10 04:33:48;;;;;;;5.03;1.90;;;;;;;18.89;58.87;99764.19;4412955;32;33317;-81
2022/07/10 04:36:16;;;;;;;4.03;2.08;;;;;;;18.85;59.17;99762.22;4413115;32;35060;-81
2022/07/10 04:38:43;;;;;;;5.57;2.40;;;;;;;18.33;60.49;99763.50;4413441;32;34043;-81
2022/07/10 04:41:11;;;;;;;4.55;2.10;;;;;;;18.90;58.88;99757.53;4400409;32;33492;-81
2022/07/10 04:43:39;;;;;;;4.60;2.05;;;;;;;18.82;59.14;99769.16;4413097;32;33519;-80
2022/07/10 04:46:07;;;;;;;3.42;1.70;;;;;;;18.84;58.98;99753.06;4412861;32;32996;-80
2022/07/10 04:48:35;;;;;;;3.47;1.90;;;;;;;19.06;58.29;99761.31;4425553;32;33838;-81
2022/07/10 04:51:03;;;;;;;3.58;1.85;;;;;;;19.29;57.52;99749.87;4412553;32;32069;-81
2022/07/10 04:53:30;;;;;;;4.55;1.80;;;;;;;18.94;58.58;99755.06;4400364;32;33621;-81
2022/07/10 04:55:58;;;;;;;5.05;2.33;;;;;;;19.00;58.63;99754.03;4400398;32;33779;-81
2022/07/10 04:58:26;;;;;;;4.25;2.15;;;;;;;18.98;58.80;99750.66;4412235;32;34564;-80
2022/07/10 05:00:53;;;;;;;3.55;2.00;;;;;;;19.18;58.09;99748.09;4413009;32;33031;-80
2022/07/10 05:03:21;;;;;;;4.87;2.20;;;;;;;19.01;58.47;99753.75;4412892;32;33688;-80
2022/07/10 05:05:49;;;;;;;4.30;2.40;;;;;;;19.31;57.80;99749.59;4412520;32;34561;-80
2022/07/10 05:08:16;;;;;;;4.07;2.00;;;;;;;18.79;59.09;99757.72;4425757;32;33289;-80
2022/07/10 05:10:44;;;;;;;4.12;2.20;;;;;;;19.12;58.34;99760.25;4425102;32;33303;-80
2022/07/10 05:13:12;;;;;;;4.70;1.90;;;;;;;19.07;58.25;99758.28;4412594;32;32268;-80
2022/07/10 05:15:42;;;;;;;3.58;1.90;;;;;;;19.26;57.63;99758.75;4425401;32;34417;-80
2022/07/10 05:18:10;;;;;;;4.20;2.30;;;;;;;19.50;57.28;99758.38;4413155;32;34100;-81
2022/07/10 05:20:41;;;;;;;3.70;1.87;;;;;;;19.60;56.69;99764.03;4400288;32;32663;-80
2022/07/10 05:23:09;;;;;;;4.53;2.28;;;;;;;19.69;56.63;99759.66;4412936;32;33822;-80
2022/07/10 05:25:39;;;;;;;3.55;1.90;;;;;;;19.67;56.27;99753.53;4424935;32;32993;-80
2022/07/10 05:28:09;;;;;;;3.70;1.90;;;;;;;19.90;55.67;99758.72;4412177;32;34511;-80
2022/07/10 05:30:38;;;;;;;5.05;2.30;;;;;;;20.04;55.24;99753.50;4412589;32;33332;-80
2022/07/10 05:33:08;;;;;;;4.95;1.85;;;;;;;20.03;55.17;99758.25;4412608;32;33819;-80
2022/07/10 05:35:38;;;;;;;4.07;1.90;;;;;;;20.20;55.00;99748.84;4412427;32;34145;-80
2022/07/10 05:38:12;;;;;;;4.37;2.05;;;;;;;20.23;54.58;99743.56;4412562;32;33949;-80
2022/07/10 05:40:40;;;;;;;4.15;1.90;;;;;;;20.11;54.68;99748.53;4412192;32;32334;-80
2022/07/10 05:43:09;;;;;;;3.85;1.73;;;;;;;20.73;53.06;99732.94;4399898;32;32273;-80
2022/07/10 05:45:38;;;;;;;3.67;1.95;;;;;;;20.44;53.72;99743.69;4412774;32;35233;-81
2022/07/10 05:48:06;;;;;;;4.15;1.73;;;;;;;20.82;52.36;99739.63;4412395;32;32973;-80
2022/07/10 05:50:34;;;;;;;3.45;2.00;;;;;;;20.88;52.11;99733.78;4400028;32;33345;-80
2022/07/10 05:53:02;;;;;;;3.85;2.17;;;;;;;21.08;51.70;99735.78;4412705;32;33901;-81
2022/07/10 05:55:30;;;;;;;4.57;2.15;;;;;;;21.24;51.15;99739.44;4412653;32;34230;-81
2022/07/10 05:57:58;;;;;;;4.15;2.03;;;;;;;21.31;50.91;99735.28;4412622;32;33940;-80
2022/07/10 06:00:26;;;;;;;5.25;2.85;;;;;;;20.43;53.29;99728.91;4412680;32;32534;-80
2022/07/10 06:02:54;;;;;;;3.30;1.75;;;;;;;20.91;52.10;99727.66;4412162;32;32926;-81
2022/07/10 06:05:24;;;;;;;4.07;2.10;;;;;;;21.06;51.63;99732.41;4412191;32;35330;-80
2022/07/10 06:07:52;;;;;;;4.47;1.90;;;;;;;21.14;51.57;99733.81;4399625;32;32343;-81
2022/07/10 06:10:22;;;;;;;3.60;1.70;;;;;;;20.91;51.65;99737.97;4412508;32;33144;-81
2022/07/10 06:12:50;;;;;;;5.00;2.00;;;;;;;21.04;51.03;99726.28;4410968;32;32215;-80
2022/07/10 06:15:17;;;;;;;3.58;1.90;;;;;;;20.84;51.38;99727.06;4399384;32;33973;-81
2022/07/10 06:18:14;;;;;;;3.60;1.87;;;;;;;21.20;50.90;99721.56;4398760;32;32312;-81
2022/07/10 06:21:08;;;;;;;4.62;1.92;;;;;;;21.25;50.40;99730.81;4402754;32;32780;-79
2022/07/10 06:23:45;;;;;;;3.47;1.90;;;;;;;;;;4402928;32;32155;-79
2022/07/10 06:26:37;;;;;;;5.78;1.80;;;;;;;21.49;49.70;99727.44;4427391;32;35198;-80
2022/07/10 06:29:33;;;;;;;4.43;1.90;;;;;;;21.80;48.96;99726.28;4416087;32;32435;-80
2022/07/10 06:32:20;;;;;;;5.35;2.10;;;;;;;21.86;48.33;99730.75;4425245;32;33874;-81
2022/07/10 06:35:11;;;;;;;6.25;1.92;;;;;;;21.51;49.65;99730.78;4410192;32;33405;-80
2022/07/10 06:38:09;;;;;;;5.12;2.30;;;;;;;21.59;49.43;99738.59;4425807;32;35517;-79
2022/07/10 06:41:03;;;;;;;3.47;1.90;;;;;;;22.09;48.44;99734.94;4412544;32;33287;-75
2022/07/10 06:43:55;;;;;;;2.85;1.55;;;;;;;22.10;48.07;99732.97;4424384;32;33439;-74
2022/07/10 06:47:55;;;;;;;3.30;2.03;;;;;;;22.13;47.29;99724.81;4423948;32;34906;-78
2022/07/10 06:49:47;;;;;;;3.50;1.80;;;;;;;22.32;46.56;99734.28;4436833;32;34931;-77
2022/07/10 06:52:39;;;;;;;6.35;2.03;;;;;;;22.34;46.44;99736.78;4412577;32;32577;-78
2022/07/10 06:55:31;;;;;;;4.95;1.77;;;;;;;22.21;46.67;99729.84;4424955;32;33252;-81
2022/07/10 06:58:11;;;;;;;3.45;1.87;;;;;;;22.19;46.58;99734.87;4424186;32;34535;-81
2022/07/10 07:00:41;;;;;;;5.03;2.10;;;;;;;21.93;47.08;99731.31;4424234;32;35309;-79
2022/07/10 07:03:11;;;;;;;6.50;1.98;;;;;;;22.60;45.75;99729.97;4411343;32;34718;-79
2022/07/10 07:05:39;;;;;;;4.30;1.80;;;;;;;22.42;45.78;99741.78;4423906;32;33250;-78
2022/07/10 07:08:27;;;;;;;4.93;2.30;;;;;;;22.55;46.07;99720.75;4423178;32;34742;-79
2022/07/10 07:11:15;;;;;;;4.28;1.98;;;;;;;22.67;46.91;99729.66;4411902;32;34383;-78
2022/07/10 07:14:11;;;;;;;3.58;1.70;;;;;;;22.80;44.48;99725.41;4410238;32;33542;-79
2022/07/10 07:17:00;;;;;;;11.65;3.08;;;;;;;22.93;44.01;99730.34;4423180;32;33983;-81
2022/07/10 07:23:16;;;;;;;5.82;1.80;;;;;;;23.27;43.23;99730.41;4412732;32;32950;-80
2022/07/10 07:26:13;;;;;;;3.37;1.60;;;;;;;23.22;42.10;99722.06;4421565;32;32696;-80
2022/07/10 07:29:10;;;;;;;3.30;1.60;;;;;;;23.36;41.54;99713.81;4425435;32;33548;-80
2022/07/10 07:32:06;;;;;;;2.95;1.55;;;;;;;22.84;42.38;99723.69;4426377;32;33870;-80
2022/07/10 07:34:59;;;;;;;2.03;1.20;;;;;;;23.21;42.05;99732.41;4427628;32;34284;-80
2022/07/10 07:38:06;;;;;;;3.17;1.20;;;;;;;23.66;41.00;99730.38;4413299;32;33498;-80
2022/07/10 07:41:00;;;;;;;3.35;1.05;;;;;;;23.43;39.16;99728.31;4427350;32;33241;-80
2022/07/10 07:43:56;;;;;;;3.22;1.40;;;;;;;23.79;38.39;99720.44;4413466;32;33852;-80
2022/07/10 07:46:47;;;;;;;3.70;1.50;;;;;;;23.41;39.28;99734.19;4425410;32;34265;-81
2022/07/10 07:49:44;;;;;;;2.15;1.20;;;;;;;23.63;39.00;99719.75;4413842;32;33690;-81
2022/07/10 07:52:33;;;;;;;2.17;1.10;;;;;;;23.78;38.53;99736.44;4438077;32;33016;-80
2022/07/10 07:55:29;;;;;;;4.05;1.40;;;;;;;23.56;38.71;99719.25;4412789;32;32517;-80
2022/07/10 07:58:10;;;;;;;3.10;1.60;;;;;;;23.73;39.67;99739.28;4413743;32;33077;-80
2022/07/10 08:00:38;;;;;;;2.53;1.30;;;;;;;24.10;38.79;99734.97;4412947;32;32452;-80
2022/07/10 08:03:06;;;;;;;4.18;1.33;;;;;;;24.30;37.40;99724.38;4426285;32;32826;-80
2022/07/10 08:05:34;;;;;;;2.53;1.23;;;;;;;24.37;37.08;99729.63;4413197;32;34502;-81
2022/07/10 08:08:07;;;;;;;4.65;1.40;;;;;;;23.94;37.19;99726.75;4413279;32;35183;-80
2022/07/10 08:10:35;;;;;;;2.33;1.30;;;;;;;24.31;37.56;99719.63;4413920;32;33832;-81
2022/07/10 08:13:11;;;;;;;3.50;1.12;;;;;;;24.42;37.74;99718.34;4415129;32;33887;-80
2022/07/10 08:15:39;;;;;;;2.35;1.17;;;;;;;24.54;37.09;99724.38;4413707;32;34518;-80
2022/07/10 08:18:07;;;;;;;2.53;1.20;;;;;;;24.33;36.52;99717.34;4413424;32;35381;-80
2022/07/10 08:20:38;;;;;;;5.18;1.50;;;;;;;24.76;35.78;99722.94;4413134;32;33766;-80
2022/07/10 08:23:06;;;;;;;3.65;1.42;;;;;;;24.51;35.80;99719.37;4426108;32;33238;-81
2022/07/10 08:25:35;;;;;;;3.22;1.37;;;;;;;24.61;35.80;99721.22;4411188;32;32234;-80
2022/07/10 08:28:05;;;;;;;2.50;1.30;;;;;;;24.78;35.00;99715.06;4410978;32;35324;-81
2022/07/10 08:30:33;;;;;;;3.85;1.40;;;;;;;25.02;34.82;99720.66;4399781;32;32451;-80
2022/07/10 08:33:04;;;;;;;3.42;1.60;;;;;;;25.32;34.21;99716.53;4412839;32;32719;-81
2022/07/10 08:35:32;;;;;;;3.62;1.40;;;;;;;25.07;34.80;99715.78;4413426;32;33670;-80
2022/07/10 08:38:00;;;;;;;4.50;1.83;;;;;;;25.03;35.71;99705.47;4413367;32;35285;-81
2022/07/10 08:40:35;;;;;;;2.33;1.23;;;;;;;25.49;34.48;99708.34;4425283;32;34233;-80
2022/07/10 08:43:03;;;;;;;5.10;2.00;;;;;;;25.52;34.12;99700.16;4400747;32;31508;-80
2022/07/10 08:45:35;;;;;;;3.08;1.50;;;;;;;25.92;33.72;99704.25;4400593;32;32298;-80
2022/07/10 08:48:05;;;;;;;11.07;7.25;;;;;;;25.74;33.02;99710.75;4414168;32;35350;-80
2022/07/10 08:50:38;;;;;;;4.32;2.15;;;;;;;25.98;33.11;99699.34;4426018;32;34105;-80
2022/07/10 08:53:13;;;;;;;2.25;1.20;;;;;;;25.94;33.52;99703.94;4425714;32;33144;-81
2022/07/10 08:55:40;;;;;;;1.90;1.20;;;;;;;25.72;32.06;99710.22;4412884;32;33187;-81
2022/07/10 08:58:12;;;;;;;2.30;1.15;;;;;;;25.98;32.36;99701.31;4413416;32;34572;-81
2022/07/10 09:00:42;;;;;;;3.62;1.10;;;;;;;26.02;31.79;99710.78;4413334;32;32874;-80
2022/07/10 09:03:13;;;;;;;4.75;1.30;;;;;;;25.71;31.60;99702.94;4425534;32;32621;-80
2022/07/10 09:05:41;;;;;;;3.67;1.20;;;;;;;26.19;31.19;99703.41;4412874;32;32076;-81
2022/07/10 09:08:31;;;;;;;2.58;1.02;;;;;;;26.31;30.08;99683.22;4413227;32;35395;-81
2022/07/10 09:11:20;;;;;;;2.47;1.12;;;;;;;26.14;31.02;99695.06;4412673;32;34245;-81
2022/07/10 09:13:49;;;;;;;0.98;0.75;;;;;;;25.84;30.55;99690.88;4413043;32;33378;-82
2022/07/10 09:16:29;;;;;;;2.45;1.05;;;;;;;26.19;29.26;99691.31;4425555;32;33316;-81
2022/07/10 09:19:18;;;;;;;2.33;1.23;;;;;;;26.25;29.80;99695.69;4400350;32;32993;-81
2022/07/10 09:22:14;;;;;;;2.47;1.10;;;;;;;26.08;30.47;99693.50;4413284;32;34554;-81
2022/07/10 09:25:02;;;;;;;4.00;1.15;;;;;;;26.19;30.50;99700.59;4410419;32;31770;-81
2022/07/10 09:28:05;;;;;;;2.70;1.17;;;;;;;26.47;30.39;99692.19;4412712;32;34380;-81
2022/07/10 09:30:56;;;;;;;3.33;0.90;;;;;;;26.76;29.60;99701.09;4426530;32;35168;-80
2022/07/10 09:33:47;;;;;;;2.28;0.95;;;;;;;26.82;29.29;99693.34;4425456;32;34210;-81
2022/07/10 09:36:41;;;;;;;1.25;0.80;;;;;;;26.29;29.54;99696.75;4439470;32;33335;-81
2022/07/10 09:39:36;;;;;;;3.22;1.00;;;;;;;26.79;29.66;99688.34;4425012;32;34129;-81
2022/07/10 09:42:47;;;;;;;3.20;1.23;;;;;;;26.90;28.94;99682.19;4426410;32;34706;-81
2022/07/10 09:45:28;;;;;;;4.00;1.15;;;;;;;27.38;28.86;99680.75;4412980;32;33938;-80
2022/07/10 09:48:13;;;;;;;2.65;0.90;;;;;;;27.45;29.98;99700.88;4426166;32;33976;-81
2022/07/10 09:51:06;;;;;;;2.33;1.00;;;;;;;27.42;29.40;99696.72;4410053;32;33029;-81
2022/07/10 09:53:56;;;;;;;5.37;1.30;;;;;;;27.20;29.51;99683.47;4412989;32;33362;-81
2022/07/10 09:56:54;;;;;;;1.08;0.80;;;;;;;27.49;28.75;99691.44;4412882;32;32569;-81
2022/07/10 09:59:39;;;;;;;1.92;0.90;;;;;;;27.50;29.04;99695.09;4412543;32;32249;-81
2022/07/10 10:02:23;;;;;;;2.80;0.90;;;;;;;27.07;29.44;99680.69;4412509;32;33811;-81
2022/07/10 10:05:15;;;;;;;1.35;0.85;;;;;;;27.50;29.00;99689.47;4412548;32;32388;-82
2022/07/10 10:08:02;;;;;;;2.70;1.02;;;;;;;27.88;28.64;99662.53;4418777;32;33763;-81
2022/07/10 10:11:03;;;;;;;1.75;0.88;;;;;;;28.33;27.89;99668.03;4412628;32;32680;-82
2022/07/10 10:13:47;;;;;;;4.78;1.02;;;;;;;28.58;27.57;99660.81;4427283;32;34661;-81
2022/07/10 10:16:15;;;;;;;2.25;0.90;;;;;;;28.31;27.42;99649.75;4412411;32;35288;-81
2022/07/10 10:21:34;;;;;;;2.00;0.90;;;;;;;28.03;27.39;99663.22;4424104;32;33202;-81
2022/07/10 10:24:02;;;;;;;1.55;0.60;;;;;;;28.14;27.31;99647.69;4410760;32;32357;-84
2022/07/10 10:26:40;;;;;;;1.60;0.90;;;;;;;27.96;27.35;99649.59;4411131;32;34346;-83
2022/07/10 10:29:13;;;;;;;2.95;0.80;;;;;;;28.41;26.24;99636.19;4424722;32;34090;-84
2022/07/10 10:31:42;;;;;;;1.55;0.90;;;;;;;28.19;25.87;99642.72;4413591;32;33188;-80
2022/07/10 10:34:09;;;;;;;1.65;0.80;;;;;;;28.69;26.38;99631.06;4415841;32;33166;-84
2022/07/10 10:36:47;;;;;;;3.40;0.88;;;;;;;28.73;24.51;99634.87;4424624;32;34552;-84
2022/07/10 10:39:16;;;;;;;1.23;0.70;;;;;;;28.49;24.79;99638.19;4420961;32;34143;-84
2022/07/10 10:41:54;;;;;;;3.22;0.82;;;;;;;28.98;24.85;99621.13;4422521;32;33243;-84
2022/07/10 10:44:23;;;;;;;1.25;0.85;;;;;;;29.42;24.86;99612.28;4415273;32;33645;-86
2022/07/10 10:46:54;;;;;;;1.87;1.00;;;;;;;29.10;25.54;99630.59;4430088;32;33113;-82
2022/07/10 10:49:25;;;;;;;2.72;1.00;;;;;;;28.70;25.41;99646.84;4454224;32;34671;-84
2022/07/10 10:52:03;;;;;;;4.07;0.93;;;;;;;28.78;26.73;99628.25;4426481;32;32589;-88
2022/07/10 10:54:57;;;;;;;1.27;0.80;;;;;;;28.67;26.45;99638.19;4427912;32;33749;-84
2022/07/10 10:57:44;;;;;;;1.55;0.85;;;;;;;28.95;27.05;99628.28;4439299;32;34120;-82
2022/07/10 11:00:19;;;;;;;3.40;0.90;;;;;;;29.28;27.09;99622.06;4424551;32;32794;-82
2022/07/10 11:03:14;;;;;;;2.40;0.82;;;;;;;29.29;25.78;99623.75;4430411;32;32050;-82
2022/07/10 11:05:43;;;;;;;1.60;0.75;;;;;;;29.58;25.25;99625.88;4417005;32;33129;-87
2022/07/10 11:08:12;;;;;;;2.97;0.77;;;;;;;29.62;24.67;99619.22;4408710;32;34550;-85
2022/07/10 11:10:41;;;;;;;9.45;2.60;;;;;;;29.94;24.38;99611.25;4418636;32;33443;-81
2022/07/10 11:13:34;;;;;;;;;;;;;;;30.17;24.86;99614.69;4419533;32;33309;-79
2022/07/10 11:16:53;;;;;;;7.80;3.12;;;;;;;30.31;24.70;99618.94;4387349;32;35406;-80
2022/07/10 11:19:23;;;;;;;18.58;4.32;;;;;;;30.24;23.67;99601.66;4383680;32;34255;-78
2022/07/10 11:21:59;;;;;;;1.92;0.95;;;;;;;30.57;25.15;99600.91;4399475;32;33685;-80
2022/07/10 11:24:33;;;;;;;3.90;0.90;;;;;;;30.50;23.18;99603.50;4412370;32;33112;-80
2022/07/10 11:27:30;;;;;;;2.67;0.97;;;;;;;29.69;24.15;99633.66;4400886;32;32641;-79
2022/07/10 11:30:01;;;;;;;6.05;1.10;;;;;;;28.39;26.34;99652.63;4413639;32;35183;-79
2022/07/10 11:32:30;;;;;;;6.65;1.58;;;;;;;28.24;26.75;99655.88;4413149;32;33503;-79
2022/07/10 11:34:58;;;;;;;5.20;1.62;;;;;;;28.38;26.49;99672.69;4413323;32;32859;-80
2022/07/10 11:37:30;;;;;;;4.22;1.30;;;;;;;28.14;26.98;99661.78;4413381;32;32253;-80
2022/07/10 11:40:12;;;;;;;19.37;6.28;;;;;;;28.61;25.51;99647.97;4413566;32;34409;-80
2022/07/10 11:42:53;;;;;;;5.22;1.30;;;;;;;28.48;27.29;99663.94;4413520;32;34158;-80
2022/07/10 11:45:32;;;;;;;5.43;1.30;;;;;;;26.90;28.03;99667.25;4413202;32;31277;-80
2022/07/10 11:48:00;;;;;;;4.53;1.08;;;;;;;26.09;29.45;99661.41;4413413;32;32292;-78
2022/07/10 11:50:36;;;;;;;3.70;1.33;;;;;;;26.35;29.07;99660.91;4412817;32;33982;-80
2022/07/10 11:53:27;;;;;;;1.25;0.77;;;;;;;26.18;29.96;99647.44;4424214;32;34907;-81
2022/07/10 11:56:16;;;;;;;3.03;1.12;;;;;;;26.24;30.52;99652.66;4429056;32;32573;-80
2022/07/10 11:59:16;;;;;;;4.72;1.30;;;;;;;26.31;30.90;99645.78;4429113;32;32759;-80
2022/07/10 12:02:06;;;;;;;3.47;1.10;;;;;;;26.01;30.82;99638.81;4423491;32;35526;-80
2022/07/10 12:04:51;;;;;;;2.78;1.08;;;;;;;25.78;31.60;99635.91;4438786;32;33727;-80
2022/07/10 12:07:39;;;;;;;2.67;1.02;;;;;;;26.10;30.71;99631.31;4439153;32;31737;-80
2022/07/10 12:10:28;;;;;;;3.05;0.93;;;;;;;25.76;31.34;99637.34;4440660;32;34586;-80
2022/07/10 12:13:30;;;;;;;2.25;0.75;;;;;;;25.85;30.47;99647.56;4439776;32;34497;-80
2022/07/10 12:16:58;;;;;;;3.17;0.77;;;;;;;26.24;28.17;99640.56;4418774;32;34788;-80
2022/07/10 12:20:20;;;;;;;1.95;1.08;;;;;;;26.64;27.20;99635.22;4418801;32;32157;-80